createdAt,value
2018-12-30T00:00:18.548Z,4.96
2018-12-30T00:02:44.810Z,4.97
2018-12-30T00:05:11.032Z,4.87
2018-12-30T00:07:37.161Z,4.79
2018-12-30T00:10:06.449Z,4.77
2018-12-30T00:12:32.272Z,4.73
2018-12-30T00:14:58.173Z,4.74
2018-12-30T00:17:23.989Z,4.65
2018-12-30T00:19:53.535Z,4.60
2018-12-30T00:22:19.445Z,4.57
2018-12-30T00:24:47.401Z,4.57
2018-12-30T00:27:13.239Z,4.54
2018-12-30T00:29:42.588Z,4.54
2018-12-30T00:32:09.090Z,4.57
2018-12-30T00:34:35.312Z,4.56
2018-12-30T00:37:01.171Z,4.49
2018-12-30T00:39:27.265Z,4.50
2018-12-30T00:41:56.357Z,4.49
2018-12-30T00:44:22.172Z,4.53
2018-12-30T00:46:50.994Z,4.51
2018-12-30T00:49:16.928Z,4.51
2018-12-30T00:51:43.198Z,4.52
2018-12-30T00:54:09.093Z,4.58
2018-12-30T00:56:37.846Z,4.57
2018-12-30T00:59:03.680Z,4.52
2018-12-30T01:01:32.705Z,4.49
2018-12-30T01:03:58.521Z,4.50
2018-12-30T01:06:27.897Z,4.53
2018-12-30T01:08:53.708Z,4.52
2018-12-30T01:11:19.561Z,4.55
2018-12-30T01:13:45.371Z,4.54
2018-12-30T01:16:11.341Z,4.53
2018-12-30T01:18:39.927Z,4.56
2018-12-30T01:21:05.760Z,4.55
2018-12-30T01:23:35.076Z,4.55
2018-12-30T01:26:00.924Z,4.51
2018-12-30T01:28:28.484Z,4.47
2018-12-30T01:30:54.304Z,3.22
2018-12-30T01:33:23.480Z,4.56
2018-12-30T01:35:49.358Z,4.56
2018-12-30T01:38:18.498Z,4.58
2018-12-30T01:40:44.339Z,4.60
2018-12-30T01:43:13.509Z,4.63
2018-12-30T01:45:39.342Z,4.66
2018-12-30T01:48:05.174Z,4.65
2018-12-30T01:50:31.008Z,4.68
2018-12-30T01:52:56.853Z,4.67
2018-12-30T01:55:25.717Z,4.70
2018-12-30T01:57:51.568Z,4.69
2018-12-30T02:00:20.137Z,4.67
2018-12-30T02:02:45.960Z,4.73
2018-12-30T02:05:14.723Z,4.76
2018-12-30T02:07:40.571Z,4.80
2018-12-30T02:10:09.370Z,4.84
2018-12-30T02:12:35.209Z,4.85
2018-12-30T02:15:03.541Z,4.90
2018-12-30T02:17:29.374Z,4.90
2018-12-30T02:19:59.993Z,4.90
2018-12-30T02:22:26.203Z,4.92
2018-12-30T02:25:03.686Z,4.90
2018-12-30T02:27:29.523Z,4.96
2018-12-30T02:29:55.378Z,4.92
2018-12-30T02:32:21.237Z,4.90
2018-12-30T02:34:47.082Z,4.95
2018-12-30T02:37:13.313Z,4.91
2018-12-30T02:39:39.205Z,4.91
2018-12-30T02:42:05.145Z,4.89
2018-12-30T02:44:31.029Z,4.91
2018-12-30T02:46:56.864Z,4.88
2018-12-30T02:49:22.719Z,4.88
2018-12-30T02:51:50.336Z,4.89
2018-12-30T02:54:16.415Z,4.87
2018-12-30T02:56:45.678Z,4.89
2018-12-30T02:59:11.527Z,4.92
2018-12-30T03:01:37.348Z,4.90
2018-12-30T03:04:03.167Z,4.93
2018-12-30T03:06:29.015Z,4.87
2018-12-30T03:08:55.339Z,4.90
2018-12-30T03:11:21.441Z,4.96
2018-12-30T03:13:49.919Z,4.95
2018-12-30T03:16:15.992Z,4.95
2018-12-30T03:18:47.137Z,4.98
2018-12-30T03:21:13.160Z,4.98
2018-12-30T03:23:42.184Z,5.04
2018-12-30T03:26:08.308Z,5.07
2018-12-30T03:28:34.148Z,5.06
2018-12-30T03:30:59.969Z,5.08
2018-12-30T03:33:28.818Z,5.15
2018-12-30T03:35:54.909Z,5.18
2018-12-30T03:38:21.055Z,5.10
2018-12-30T03:40:46.862Z,5.12
2018-12-30T03:43:12.718Z,5.22
2018-12-30T03:45:41.293Z,5.16
2018-12-30T03:48:07.431Z,5.05
2018-12-30T03:50:36.602Z,4.99
2018-12-30T03:53:02.476Z,5.01
2018-12-30T03:55:31.323Z,4.98
2018-12-30T03:57:57.365Z,4.96
2018-12-30T04:00:26.377Z,4.94
2018-12-30T04:02:52.212Z,4.92
2018-12-30T04:05:19.652Z,4.94
2018-12-30T04:07:45.773Z,4.92
2018-12-30T04:10:14.733Z,4.86
2018-12-30T04:12:40.569Z,4.76
2018-12-30T04:15:06.660Z,4.73
2018-12-30T04:17:32.785Z,4.78
2018-12-30T04:19:58.634Z,4.81
2018-12-30T04:22:27.902Z,4.86
2018-12-30T04:24:54.009Z,4.88
2018-12-30T04:27:23.581Z,4.90
2018-12-30T04:29:49.483Z,4.88
2018-12-30T04:32:15.325Z,4.92
2018-12-30T04:34:41.183Z,4.94
2018-12-30T04:37:12.122Z,4.94
2018-12-30T04:39:38.272Z,4.98
2018-12-30T04:42:07.058Z,5.02
2018-12-30T04:44:32.908Z,5.04
2018-12-30T04:47:01.727Z,5.08
2018-12-30T04:49:27.583Z,5.10
2018-12-30T04:51:53.393Z,5.11
2018-12-30T04:54:19.248Z,5.12
2018-12-30T04:56:45.404Z,5.12
2018-12-30T04:59:11.264Z,5.06
2018-12-30T05:01:37.100Z,5.01
2018-12-30T05:04:07.973Z,5.00
2018-12-30T05:06:33.785Z,5.03
2018-12-30T05:09:05.071Z,5.07
2018-12-30T05:11:30.906Z,5.13
2018-12-30T05:13:56.758Z,5.19
2018-12-30T05:16:22.857Z,5.25
2018-12-30T05:18:49.884Z,5.20
2018-12-30T05:21:16.016Z,5.21
2018-12-30T05:23:46.771Z,5.26
2018-12-30T05:26:12.715Z,5.22
2018-12-30T05:28:38.842Z,5.24
2018-12-30T05:31:04.935Z,5.25
2018-12-30T05:33:30.797Z,5.23
2018-12-30T05:35:56.671Z,5.24
2018-12-30T05:38:22.496Z,5.21
2018-12-30T05:40:53.812Z,5.20
2018-12-30T05:43:19.915Z,5.23
2018-12-30T05:45:45.757Z,5.19
2018-12-30T05:48:11.897Z,5.21
2018-12-30T05:50:40.742Z,5.21
2018-12-30T05:53:06.573Z,5.16
2018-12-30T05:55:34.952Z,5.13
2018-12-30T05:58:00.832Z,4.45
2018-12-30T06:00:29.711Z,5.08
2018-12-30T06:02:55.809Z,5.09
2018-12-30T06:05:21.662Z,5.07
2018-12-30T06:07:47.517Z,5.04
2018-12-30T06:10:13.417Z,5.02
2018-12-30T06:12:42.683Z,5.00
2018-12-30T06:15:10.384Z,5.01
2018-12-30T06:17:36.326Z,4.98
2018-12-30T06:20:03.254Z,5.00
2018-12-30T06:22:32.096Z,4.99
2018-12-30T06:24:57.912Z,5.03
2018-12-30T06:27:26.566Z,4.95
2018-12-30T06:29:52.667Z,5.06
2018-12-30T06:32:21.807Z,5.03
2018-12-30T06:34:47.670Z,5.02
2018-12-30T06:37:16.555Z,5.06
2018-12-30T06:39:42.544Z,5.02
2018-12-30T06:42:08.644Z,4.98
2018-12-30T06:44:34.486Z,5.00
2018-12-30T06:47:00.440Z,5.00
2018-12-30T06:49:29.408Z,5.01
2018-12-30T06:51:55.270Z,5.02
2018-12-30T06:54:24.412Z,5.05
2018-12-30T06:56:50.256Z,5.07
2018-12-30T06:59:19.547Z,5.07
2018-12-30T07:01:45.404Z,5.13
2018-12-30T07:04:11.458Z,5.12
2018-12-30T07:06:38.425Z,5.17
2018-12-30T07:09:07.347Z,5.18
2018-12-30T07:11:36.119Z,5.13
2018-12-30T07:14:02.041Z,5.17
2018-12-30T07:16:27.868Z,5.15
2018-12-30T07:18:53.940Z,5.18
2018-12-30T07:21:19.790Z,5.22
2018-12-30T07:23:45.612Z,5.19
2018-12-30T07:26:14.251Z,5.27
2018-12-30T07:28:40.063Z,5.26
2018-12-30T07:31:07.185Z,5.27
2018-12-30T07:33:32.986Z,5.28
2018-12-30T07:36:01.700Z,5.25
2018-12-30T07:38:27.829Z,5.27
2018-12-30T07:40:58.622Z,5.23
2018-12-30T07:43:24.733Z,5.19
2018-12-30T07:45:53.632Z,5.26
2018-12-30T07:48:20.027Z,5.21
2018-12-30T07:50:45.961Z,5.20
2018-12-30T07:53:13.883Z,5.22
2018-12-30T07:55:40.129Z,5.25
2018-12-30T07:58:05.966Z,5.28
2018-12-30T08:00:31.933Z,5.24
2018-12-30T08:02:58.115Z,5.21
2018-12-30T08:05:24.266Z,5.22
2018-12-30T08:07:52.503Z,5.23
2018-12-30T08:10:21.367Z,5.23
2018-12-30T08:12:47.208Z,5.25
2018-12-30T08:15:13.020Z,5.17
2018-12-30T08:17:41.211Z,5.27
2018-12-30T08:20:07.305Z,5.26
2018-12-30T08:22:36.353Z,5.25
2018-12-30T08:25:02.335Z,5.27
2018-12-30T08:27:32.570Z,5.29
2018-12-30T08:30:01.942Z,5.38
2018-12-30T08:32:27.759Z,5.47
2018-12-30T08:34:53.631Z,5.51
2018-12-30T08:37:19.428Z,5.54
2018-12-30T08:39:45.235Z,5.62
2018-12-30T08:42:11.093Z,5.67
2018-12-30T08:44:39.686Z,5.75
2018-12-30T08:47:05.526Z,5.83
2018-12-30T08:49:34.089Z,6.04
2018-12-30T08:52:00.193Z,6.25
2018-12-30T08:54:29.055Z,6.37
2018-12-30T08:56:55.166Z,6.40
2018-12-30T08:59:24.195Z,6.41
2018-12-30T09:01:50.043Z,6.37
2018-12-30T09:04:19.170Z,6.34
2018-12-30T09:06:45.008Z,6.28
2018-12-30T09:09:10.921Z,6.23
2018-12-30T09:11:36.867Z,6.14
2018-12-30T09:14:02.807Z,6.11
2018-12-30T09:16:28.634Z,6.00
2018-12-30T09:18:54.501Z,5.94
2018-12-30T09:21:26.214Z,5.94
2018-12-30T09:23:52.341Z,5.97
2018-12-30T09:26:18.150Z,5.90
2018-12-30T09:28:47.423Z,5.92
2018-12-30T09:31:13.319Z,5.95
2018-12-30T09:33:39.476Z,5.97
2018-12-30T09:36:08.417Z,6.02
2018-12-30T09:38:34.587Z,6.13
2018-12-30T09:41:02.019Z,6.23
2018-12-30T09:43:28.302Z,6.39
2018-12-30T09:45:54.125Z,6.55
2018-12-30T09:48:19.998Z,6.54
2018-12-30T09:50:46.299Z,6.54
2018-12-30T09:53:15.516Z,6.46
2018-12-30T09:55:41.382Z,6.30
2018-12-30T09:58:08.541Z,6.19
2018-12-30T10:00:34.380Z,6.18
2018-12-30T10:03:03.547Z,6.23
2018-12-30T10:05:29.361Z,6.19
2018-12-30T10:07:57.930Z,6.05
2018-12-30T10:10:24.043Z,6.06
2018-12-30T10:12:52.936Z,6.04
2018-12-30T10:15:18.960Z,6.01
2018-12-30T10:17:48.224Z,6.04
2018-12-30T10:20:14.157Z,6.00
2018-12-30T10:22:39.965Z,5.95
2018-12-30T10:25:06.058Z,6.02
2018-12-30T10:27:31.885Z,6.06
2018-12-30T10:30:00.813Z,6.11
2018-12-30T10:32:26.653Z,6.18
2018-12-30T10:34:54.261Z,6.17
2018-12-30T10:37:20.101Z,6.12
2018-12-30T10:39:49.392Z,6.08
2018-12-30T10:42:15.480Z,6.12
2018-12-30T10:44:44.255Z,6.12
2018-12-30T10:47:10.382Z,6.10
2018-12-30T10:49:39.002Z,6.04
2018-12-30T10:52:04.830Z,6.05
2018-12-30T10:54:33.464Z,6.10
2018-12-30T10:56:59.310Z,6.16
2018-12-30T10:59:25.405Z,6.16
2018-12-30T11:01:51.534Z,6.18
2018-12-30T11:04:17.440Z,6.25
2018-12-30T11:06:47.326Z,6.28
2018-12-30T11:09:13.182Z,6.26
2018-12-30T11:11:39.047Z,6.29
2018-12-30T11:14:04.848Z,6.41
2018-12-30T11:16:35.534Z,6.47
2018-12-30T11:19:01.361Z,6.44
2018-12-30T11:21:30.298Z,6.41
2018-12-30T11:23:56.135Z,6.45
2018-12-30T11:26:24.819Z,6.48
2018-12-30T11:28:50.681Z,6.39
2018-12-30T11:31:18.076Z,6.36
2018-12-30T11:33:44.168Z,6.37
2018-12-30T11:36:10.059Z,6.36
2018-12-30T11:38:35.868Z,6.44
2018-12-30T11:41:02.025Z,6.29
2018-12-30T11:43:31.073Z,6.28
2018-12-30T11:45:56.984Z,6.26
2018-12-30T11:48:25.812Z,6.18
2018-12-30T11:50:51.665Z,6.19
2018-12-30T11:53:20.622Z,6.09
2018-12-30T12:07:40.855Z,5.87
2018-12-30T12:10:06.757Z,5.80
2018-12-30T12:15:40.736Z,5.90
2018-12-30T12:18:06.569Z,5.88
2018-12-30T12:56:40.350Z,5.25
2018-12-30T12:59:13.978Z,5.29
2018-12-30T13:01:40.493Z,5.47
2018-12-30T13:04:06.607Z,5.62
2018-12-30T13:06:32.451Z,5.73
2018-12-30T13:08:58.304Z,5.76
2018-12-30T13:11:24.427Z,5.74
2018-12-30T13:13:50.609Z,5.81
2018-12-30T13:16:16.753Z,5.75
2018-12-30T13:18:42.570Z,5.70
2018-12-30T13:21:08.436Z,5.74
2018-12-30T13:23:34.258Z,5.76
2018-12-30T13:26:03.111Z,5.77
2018-12-30T13:28:29.009Z,5.76
2018-12-30T13:31:15.134Z,5.81
2018-12-30T13:33:40.975Z,5.91
2018-12-30T13:36:08.028Z,6.00
2018-12-30T13:38:33.873Z,5.98
2018-12-30T13:40:59.705Z,5.97
2018-12-30T13:43:25.832Z,5.60
2018-12-30T13:45:51.968Z,6.07
2018-12-30T13:48:17.809Z,6.09
2018-12-30T13:50:44.148Z,6.13
2018-12-30T13:53:09.992Z,6.10
2018-12-30T13:55:36.113Z,6.07
2018-12-30T13:58:01.954Z,5.93
2018-12-30T14:00:27.796Z,5.86
2018-12-30T14:02:53.640Z,5.64
2018-12-30T14:05:20.833Z,5.70
2018-12-30T14:07:50.357Z,5.71
2018-12-30T14:10:16.547Z,4.55
2018-12-30T14:12:42.450Z,5.54
2018-12-30T14:15:08.422Z,5.48
2018-12-30T14:17:34.232Z,5.48
2018-12-30T14:20:06.538Z,5.47
2018-12-30T14:22:28.960Z,5.44
2018-12-30T14:24:57.846Z,5.44
2018-12-30T14:27:23.656Z,5.30
2018-12-30T14:29:49.703Z,5.43
2018-12-30T14:32:18.886Z,5.41
2018-12-30T14:34:44.977Z,5.32
2018-12-30T14:37:13.889Z,5.31
2018-12-30T14:39:39.758Z,5.36
2018-12-30T14:42:05.759Z,5.36
2018-12-30T14:44:32.135Z,5.36
2018-12-30T14:46:57.897Z,5.28
2018-12-30T14:49:23.732Z,5.23
2018-12-30T14:51:49.545Z,5.27
2018-12-30T14:54:18.767Z,5.28
2018-12-30T14:56:45.080Z,5.32
2018-12-30T14:59:14.125Z,5.34
2018-12-30T15:01:39.984Z,5.41
2018-12-30T15:04:07.459Z,5.41
2018-12-30T15:06:33.328Z,5.46
2018-12-30T15:09:04.367Z,5.49
2018-12-30T15:11:30.501Z,5.49
2018-12-30T15:13:56.337Z,5.61
2018-12-30T15:16:22.444Z,5.67
2018-12-30T15:18:51.340Z,5.73
2018-12-30T15:21:17.189Z,5.70
2018-12-30T15:23:43.247Z,5.67
2018-12-30T15:26:09.362Z,5.59
2018-12-30T15:28:35.524Z,5.53
2018-12-30T15:31:04.405Z,5.53
2018-12-30T15:33:30.239Z,5.46
2018-12-30T15:35:59.195Z,5.49
2018-12-30T15:38:25.105Z,5.54
2018-12-30T15:40:53.862Z,5.55
2018-12-30T15:43:19.703Z,5.49
2018-12-30T15:45:48.418Z,5.48
2018-12-30T15:48:14.278Z,5.54
2018-12-30T15:50:43.206Z,5.53
2018-12-30T15:53:09.430Z,5.62
2018-12-30T15:55:36.712Z,5.64
2018-12-30T15:58:02.560Z,5.59
2018-12-30T16:00:28.407Z,5.63
2018-12-30T16:02:54.240Z,5.62
2018-12-30T16:05:20.067Z,5.65
2018-12-30T16:07:50.841Z,5.70
2018-12-30T16:10:16.696Z,5.67
2018-12-30T16:12:46.547Z,5.72
2018-12-30T16:15:12.391Z,5.36
2018-12-30T16:17:38.483Z,5.61
2018-12-30T16:20:09.305Z,5.65
2018-12-30T16:22:35.474Z,5.70
2018-12-30T16:25:01.329Z,5.70
2018-12-30T16:27:27.457Z,5.74
2018-12-30T16:29:53.281Z,5.69
2018-12-30T16:32:22.684Z,5.67
2018-12-30T16:34:50.875Z,5.60
2018-12-30T16:37:16.795Z,5.62
2018-12-30T16:39:42.707Z,5.60
2018-12-30T16:42:08.949Z,5.55
2018-12-30T16:44:35.075Z,5.54
2018-12-30T16:47:02.075Z,5.45
2018-12-30T16:49:30.768Z,5.40
2018-12-30T16:51:58.944Z,5.40
2018-12-30T16:54:25.272Z,5.37
2018-12-30T16:56:51.106Z,5.31
2018-12-30T16:59:20.215Z,5.27
2018-12-30T17:01:46.067Z,5.26
2018-12-30T17:04:15.375Z,5.22
2018-12-30T17:06:41.232Z,5.17
2018-12-30T17:09:07.208Z,5.10
2018-12-30T17:11:33.353Z,5.05
2018-12-30T17:13:59.184Z,5.08
2018-12-30T17:16:25.022Z,5.13
2018-12-30T17:18:55.995Z,5.11
2018-12-30T17:21:21.496Z,5.00
2018-12-30T17:23:51.833Z,5.06
2018-12-30T17:26:17.651Z,5.06
2018-12-30T17:28:43.514Z,5.10
2018-12-30T17:31:09.488Z,5.09
2018-12-30T17:33:35.315Z,5.03
2018-12-30T17:36:04.183Z,4.99
2018-12-30T17:38:30.093Z,4.98
2018-12-30T17:41:01.588Z,5.03
2018-12-30T17:43:27.265Z,4.95
2018-12-30T17:45:54.222Z,4.98
2018-12-30T17:48:20.096Z,5.05
2018-12-30T17:50:45.931Z,5.09
2018-12-30T17:53:11.852Z,5.09
2018-12-30T17:55:37.693Z,5.08
2018-12-30T17:58:06.791Z,5.09
2018-12-30T18:00:32.986Z,5.06
2018-12-30T18:02:59.427Z,5.07
2018-12-30T18:05:25.261Z,5.14
2018-12-30T18:07:53.328Z,5.16
2018-12-30T18:10:19.130Z,5.22
2018-12-30T18:12:49.632Z,5.25
2018-12-30T18:15:13.259Z,5.28
2018-12-30T18:17:41.642Z,5.30
2018-12-30T18:20:07.369Z,5.29
2018-12-30T18:22:33.218Z,5.33
2018-12-30T18:25:05.982Z,5.37
2018-12-30T18:27:32.075Z,5.37
2018-12-30T18:29:58.191Z,5.34
2018-12-30T18:32:24.329Z,5.36
2018-12-30T18:34:50.189Z,5.33
2018-12-30T18:37:16.058Z,5.43
2018-12-30T18:39:47.437Z,5.44
2018-12-30T18:42:13.292Z,5.40
2018-12-30T18:44:39.115Z,5.37
2018-12-30T18:47:04.970Z,5.37
2018-12-30T18:49:35.410Z,5.35
2018-12-30T18:52:01.328Z,5.31
2018-12-30T18:54:30.913Z,5.24
2018-12-30T18:56:57.268Z,5.26
2018-12-30T18:59:23.102Z,5.27
2018-12-30T19:01:48.916Z,5.28
2018-12-30T19:04:15.009Z,5.41
2018-12-30T19:06:40.905Z,5.43
2018-12-30T19:09:06.973Z,5.39
2018-12-30T19:11:35.578Z,5.36
2018-12-30T19:14:01.551Z,5.33
2018-12-30T19:16:30.862Z,5.33
2018-12-30T19:18:56.709Z,3.92
2018-12-30T19:21:25.509Z,5.42
2018-12-30T19:23:51.376Z,5.44
2018-12-30T19:26:20.240Z,5.39
2018-12-30T19:28:46.087Z,5.37
2018-12-30T19:31:15.157Z,5.34
2018-12-30T19:33:40.998Z,5.40
2018-12-30T19:36:08.760Z,5.42
2018-12-30T19:38:34.603Z,5.43
2018-12-30T19:41:00.407Z,5.41
2018-12-30T19:43:26.555Z,5.43
2018-12-30T19:45:52.417Z,5.44
2018-12-30T19:48:20.433Z,5.41
2018-12-30T19:50:46.409Z,5.43
2018-12-30T19:53:15.502Z,5.42
2018-12-30T19:55:41.320Z,5.38
2018-12-30T19:58:11.499Z,5.40
2018-12-30T20:00:37.361Z,5.42
2018-12-30T20:03:06.556Z,5.46
2018-12-30T20:05:32.473Z,5.45
2018-12-30T20:08:01.375Z,5.35
2018-12-30T20:10:27.572Z,5.41
2018-12-30T20:12:57.814Z,5.40
2018-12-30T20:15:23.840Z,5.46
2018-12-30T20:17:49.649Z,5.40
2018-12-30T20:20:15.798Z,5.41
2018-12-30T20:22:41.932Z,5.42
2018-12-30T20:25:07.767Z,5.44
2018-12-30T20:27:39.145Z,5.49
2018-12-30T20:30:06.511Z,5.55
2018-12-30T20:32:32.576Z,5.53
2018-12-30T20:34:58.654Z,5.55
2018-12-30T20:37:24.573Z,5.56
2018-12-30T20:39:50.494Z,5.62
2018-12-30T20:42:16.377Z,5.70
2018-12-30T20:44:45.087Z,5.71
2018-12-30T20:47:11.069Z,5.67
2018-12-30T20:49:39.171Z,5.78
2018-12-30T20:52:05.018Z,5.78
2018-12-30T20:54:31.139Z,5.78
2018-12-30T20:56:56.986Z,5.79
2018-12-30T20:59:22.808Z,5.80
2018-12-30T21:01:51.632Z,5.79
2018-12-30T21:04:17.472Z,5.82
2018-12-30T21:06:46.357Z,5.87
2018-12-30T21:09:12.486Z,5.90
2018-12-30T21:11:41.531Z,5.90
2018-12-30T21:14:07.352Z,5.94
2018-12-30T21:16:36.460Z,5.92
2018-12-30T21:19:02.290Z,5.92
2018-12-30T21:21:31.221Z,5.80
2018-12-30T21:23:57.378Z,5.80
2018-12-30T21:26:26.160Z,5.74
2018-12-30T21:28:52.004Z,5.70
2018-12-30T21:31:17.812Z,5.62
2018-12-30T21:33:46.749Z,5.65
2018-12-30T21:36:12.644Z,5.69
2018-12-30T21:38:38.485Z,5.73
2018-12-30T21:41:04.309Z,5.66
2018-12-30T21:43:33.483Z,5.60
2018-12-30T21:45:59.319Z,5.59
2018-12-30T21:48:28.184Z,5.53
2018-12-30T21:50:54.023Z,5.56
2018-12-30T21:53:22.621Z,5.54
2018-12-30T21:55:54.430Z,5.43
2018-12-30T21:58:20.520Z,5.34
2018-12-30T22:00:46.434Z,5.28
2018-12-30T22:03:12.284Z,5.20
2018-12-30T22:05:41.272Z,5.14
2018-12-30T22:08:07.124Z,5.14
2018-12-30T22:10:32.962Z,5.08
2018-12-30T22:12:59.073Z,5.06
2018-12-30T22:15:24.912Z,5.00
2018-12-30T22:17:50.840Z,5.05
2018-12-30T22:20:16.678Z,5.03
2018-12-30T22:22:42.494Z,5.02
2018-12-30T22:25:10.907Z,4.97
2018-12-30T22:27:36.768Z,4.96
2018-12-30T22:30:07.215Z,4.95
2018-12-30T22:32:33.066Z,4.93
2018-12-30T22:35:01.651Z,4.96
2018-12-30T22:37:27.468Z,4.95
2018-12-30T22:39:56.397Z,4.97
2018-12-30T22:42:22.297Z,5.03
2018-12-30T22:44:48.152Z,5.03
2018-12-30T22:47:14.014Z,5.02
2018-12-30T22:49:39.859Z,4.98
2018-12-30T22:52:08.030Z,5.00
2018-12-30T22:54:34.169Z,4.97
2018-12-30T22:57:03.243Z,4.94
2018-12-30T22:59:29.054Z,4.92
2018-12-30T23:01:58.024Z,4.92
2018-12-30T23:04:23.870Z,4.93
2018-12-30T23:06:51.314Z,4.92
2018-12-30T23:09:17.462Z,4.95
2018-12-30T23:11:47.068Z,4.58
2018-12-30T23:14:12.931Z,4.95
2018-12-30T23:16:41.789Z,4.94
2018-12-30T23:19:07.938Z,4.95
2018-12-30T23:21:33.769Z,4.97
2018-12-30T23:23:59.873Z,4.94
2018-12-30T23:26:25.984Z,4.96
2018-12-30T23:28:55.197Z,4.94
2018-12-30T23:31:21.404Z,4.94
2018-12-30T23:33:47.222Z,4.91
2018-12-30T23:36:13.050Z,4.88
2018-12-30T23:38:44.312Z,4.87
2018-12-30T23:41:10.369Z,4.86
2018-12-30T23:43:36.238Z,4.88
2018-12-30T23:46:03.002Z,4.96
2018-12-30T23:48:31.105Z,4.96
2018-12-30T23:50:57.253Z,5.01
2018-12-30T23:53:25.711Z,5.09
2018-12-30T23:55:51.547Z,5.17
2018-12-30T23:58:17.400Z,5.18
